Time;durP1;ratioP1;P1;durP2;ratioP2;P2;SDS_P1;SDS_P2;PMS_P1;PMS_P2;Temp;Humidity;BMP_temperature;BMP_pressure;BME280_temperature;BME280_humidity;BME280_pressure;Samples;Min_cycle;Max_cycle;Signal;HPM_P1;HPM_P2
2022/06/08 00:01:32;;;;;;;3.63;1.23;;;14.90;99.90;;;;;;4968133;28;20089;-84
2022/06/08 00:04:01;;;;;;;3.65;1.35;;;14.90;99.90;;;;;;4968770;28;20033;-84
2022/06/08 00:06:26;;;;;;;3.95;1.50;;;14.90;99.90;;;;;;4965985;28;20031;-84
2022/06/08 00:08:52;;;;;;;2.42;1.10;;;14.90;99.90;;;;;;4971778;28;20035;-84
2022/06/08 00:11:19;;;;;;;2.47;1.20;;;14.90;99.90;;;;;;4973501;28;20031;-84
2022/06/08 00:13:45;;;;;;;2.92;1.25;;;15.00;99.90;;;;;;4966589;28;20121;-84
2022/06/08 00:16:12;;;;;;;5.45;1.20;;;14.90;99.90;;;;;;4965889;28;20034;-83
2022/06/08 00:18:39;;;;;;;2.67;0.90;;;14.90;99.90;;;;;;4970033;28;20498;-83
2022/06/08 00:21:05;;;;;;;4.53;1.50;;;14.90;99.90;;;;;;4967192;28;20027;-84
2022/06/08 00:23:31;;;;;;;2.58;1.38;;;14.90;99.90;;;;;;4968557;28;20035;-84
2022/06/08 00:25:57;;;;;;;2.92;1.23;;;14.90;99.90;;;;;;4965373;28;20029;-83
2022/06/08 00:28:23;;;;;;;6.32;1.80;;;14.90;99.90;;;;;;4973690;28;20461;-83
2022/06/08 00:30:49;;;;;;;1.85;1.45;;;14.90;99.90;;;;;;4968027;28;20037;-83
2022/06/08 00:33:14;;;;;;;2.45;1.60;;;14.90;99.90;;;;;;4972327;28;20031;-84
2022/06/08 00:35:40;;;;;;;3.92;1.73;;;14.90;99.90;;;;;;4967117;28;20561;-84
2022/06/08 00:38:06;;;;;;;3.25;2.05;;;15.00;99.90;;;;;;4965882;28;20061;-84
2022/06/08 00:40:54;;;;;;;3.85;2.00;;;15.00;99.90;;;;;;4969558;28;20041;-84
2022/06/08 00:43:19;;;;;;;3.30;1.40;;;15.00;99.90;;;;;;4964880;28;20018;-84
2022/06/08 00:45:46;;;;;;;1.90;1.33;;;15.00;99.90;;;;;;4969010;28;20089;-84
2022/06/08 00:48:12;;;;;;;3.00;1.23;;;15.00;99.90;;;;;;4965302;28;20444;-84
2022/06/08 00:50:45;;;;;;;2.08;1.20;;;15.00;99.90;;;;;;4965061;28;20030;-84
2022/06/08 00:53:15;;;;;;;2.97;1.63;;;15.00;99.90;;;;;;4970597;28;20026;-84
2022/06/08 00:55:42;;;;;;;4.13;1.15;;;15.00;99.90;;;;;;4967857;28;20046;-84
2022/06/08 00:58:25;;;;;;;1.48;1.02;;;15.00;99.90;;;;;;4964298;28;20059;-83
2022/06/08 01:00:52;;;;;;;2.40;1.13;;;15.00;99.90;;;;;;4966986;28;20030;-85
2022/06/08 01:03:18;;;;;;;6.53;1.58;;;15.00;99.90;;;;;;4967907;28;20107;-84
2022/06/08 01:06:03;;;;;;;2.45;1.00;;;14.90;99.90;;;;;;4968606;28;20059;-85
2022/06/08 01:08:39;;;;;;;5.05;1.30;;;15.00;99.90;;;;;;4962836;28;20053;-84
2022/06/08 01:11:12;;;;;;;2.05;1.30;;;15.00;99.90;;;;;;4980030;28;20035;-84
2022/06/08 01:13:39;;;;;;;2.00;1.27;;;14.90;99.90;;;;;;4982195;28;20035;-83
2022/06/08 01:16:08;;;;;;;5.53;1.88;;;14.90;99.90;;;;;;4968335;28;20063;-83
2022/06/08 01:18:35;;;;;;;2.58;1.05;;;14.90;99.90;;;;;;4971720;28;20030;-83
2022/06/08 01:21:21;;;;;;;4.55;1.42;;;14.90;99.90;;;;;;4968872;28;20082;-84
2022/06/08 01:23:48;;;;;;;4.45;1.58;;;14.90;99.90;;;;;;4951889;28;20035;-83
2022/06/08 01:26:38;;;;;;;3.45;1.15;;;14.90;99.90;;;;;;4966502;28;20506;-84
2022/06/08 01:29:06;;;;;;;3.53;1.42;;;14.90;99.90;;;;;;4967100;28;20495;-83
2022/06/08 01:31:41;;;;;;;3.97;1.42;;;14.90;99.90;;;;;;4962171;28;20113;-83
2022/06/08 01:34:47;;;;;;;5.30;1.67;;;14.80;99.90;;;;;;4981100;28;20023;-83
2022/06/08 01:37:47;;;;;;;3.63;1.20;;;14.80;99.90;;;;;;4962606;28;20035;-84
2022/06/08 01:40:18;;;;;;;1.63;1.20;;;14.70;99.90;;;;;;4968082;28;20034;-83
2022/06/08 01:42:53;;;;;;;1.55;1.10;;;14.70;99.90;;;;;;4971333;28;20391;-84
2022/06/08 01:45:29;;;;;;;2.35;1.50;;;14.70;99.90;;;;;;4970693;28;20507;-84
2022/06/08 01:48:10;;;;;;;5.40;1.50;;;14.60;99.90;;;;;;4963021;28;20435;-84
2022/06/08 01:50:54;;;;;;;2.03;1.05;;;14.60;99.90;;;;;;4973602;28;21264;-84
2022/06/08 01:53:42;;;;;;;1.90;1.10;;;14.60;99.90;;;;;;4966169;28;20023;-84
2022/06/08 01:56:19;;;;;;;3.75;1.30;;;14.50;99.90;;;;;;4975604;28;20496;-84
2022/06/08 01:59:02;;;;;;;4.55;1.15;;;14.60;99.90;;;;;;4967207;28;20022;-84
2022/06/08 02:01:47;;;;;;;1.95;1.35;;;14.50;99.90;;;;;;4972046;28;20069;-84
2022/06/08 02:04:37;;;;;;;3.25;1.30;;;14.40;99.90;;;;;;4977198;28;20089;-84
2022/06/08 02:07:14;;;;;;;4.25;1.25;;;14.40;99.90;;;;;;4971959;28;20039;-84
2022/06/08 02:09:52;;;;;;;5.15;1.08;;;14.30;99.90;;;;;;4978751;28;20027;-84
2022/06/08 02:12:18;;;;;;;4.70;1.50;;;14.30;99.90;;;;;;4974697;28;20034;-84
2022/06/08 02:14:58;;;;;;;4.70;1.13;;;14.30;99.90;;;;;;4974159;28;20506;-84
2022/06/08 02:17:33;;;;;;;5.65;1.50;;;14.20;99.90;;;;;;4972923;28;20015;-84
2022/06/08 02:20:15;;;;;;;5.13;1.45;;;14.20;99.90;;;;;;4985364;28;20022;-84
2022/06/08 02:22:57;;;;;;;1.90;1.15;;;14.10;99.90;;;;;;4973399;28;20027;-85
2022/06/08 02:25:30;;;;;;;4.32;1.40;;;14.10;99.90;;;;;;4974343;28;20423;-84
2022/06/08 02:28:18;;;;;;;4.13;1.83;;;14.10;99.90;;;;;;4973428;28;20476;-85
2022/06/08 02:30:53;;;;;;;5.50;1.60;;;14.00;99.90;;;;;;4974199;28;20045;-84
2022/06/08 02:36:31;;;;;;;4.63;1.42;;;13.90;99.90;;;;;;4966274;28;20030;-84
2022/06/08 02:39:16;;;;;;;2.30;1.17;;;13.90;99.90;;;;;;4971523;28;20590;-84
2022/06/08 02:41:46;;;;;;;3.03;1.08;;;13.90;99.90;;;;;;4971677;28;20027;-83
2022/06/08 02:44:18;;;;;;;3.17;1.10;;;13.80;99.90;;;;;;4977425;28;20023;-84
2022/06/08 02:47:02;;;;;;;4.53;1.35;;;13.90;99.90;;;;;;4974021;28;20039;-84
2022/06/08 02:49:28;;;;;;;2.42;1.38;;;13.80;99.90;;;;;;4972802;28;20115;-84
2022/06/08 02:52:00;;;;;;;2.83;1.35;;;13.80;99.90;;;;;;4968186;28;20566;-83
2022/06/08 02:54:27;;;;;;;5.07;1.30;;;13.80;99.90;;;;;;4977964;28;20043;-84
2022/06/08 02:57:19;;;;;;;4.05;1.65;;;13.70;99.90;;;;;;4973326;28;20062;-83
2022/06/08 02:59:56;;;;;;;1.88;1.45;;;13.70;99.90;;;;;;4969472;28;20094;-84
2022/06/08 03:02:30;;;;;;;4.40;1.75;;;13.60;99.90;;;;;;4974443;28;20026;-83
2022/06/08 03:05:11;;;;;;;5.88;1.30;;;13.60;99.90;;;;;;4974202;28;20093;-84
2022/06/08 03:08:19;;;;;;;4.68;1.63;;;13.60;99.90;;;;;;4975422;28;20043;-83
2022/06/08 03:10:47;;;;;;;9.85;1.98;;;13.50;99.90;;;;;;4970072;28;20360;-83
2022/06/08 03:13:30;;;;;;;6.60;1.70;;;13.50;99.90;;;;;;4975410;28;20045;-84
2022/06/08 03:15:58;;;;;;;4.57;1.65;;;13.40;99.90;;;;;;4975606;28;20057;-83
2022/06/08 03:18:24;;;;;;;4.63;1.75;;;13.40;99.90;;;;;;4976740;28;20031;-84
2022/06/08 03:20:50;;;;;;;7.50;1.90;;;13.40;99.90;;;;;;4978185;28;20026;-83
2022/06/08 03:23:17;;;;;;;2.85;1.33;;;13.40;99.90;;;;;;4970101;28;20119;-83
2022/06/08 03:25:43;;;;;;;4.18;1.60;;;13.40;99.90;;;;;;4968837;28;20089;-83
2022/06/08 03:28:13;;;;;;;7.63;1.85;;;13.40;99.90;;;;;;4975489;28;20030;-83
2022/06/08 03:30:39;;;;;;;4.45;1.40;;;13.40;99.90;;;;;;4974125;28;20031;-83
2022/06/08 03:33:04;;;;;;;7.10;1.95;;;13.40;99.90;;;;;;4978050;28;20031;-84
2022/06/08 03:35:30;;;;;;;4.85;1.73;;;13.40;99.90;;;;;;4974935;28;20031;-83
2022/06/08 03:37:56;;;;;;;5.68;1.45;;;13.40;99.90;;;;;;4972333;28;20062;-84
2022/06/08 03:40:21;;;;;;;3.33;1.92;;;13.40;99.90;;;;;;4967800;28;20503;-83
2022/06/08 03:42:47;;;;;;;2.58;1.50;;;13.40;99.90;;;;;;4970610;28;20187;-84
2022/06/08 03:45:13;;;;;;;2.25;1.48;;;13.40;99.90;;;;;;4973807;28;20030;-84
2022/06/08 03:47:44;;;;;;;4.18;1.38;;;13.40;99.90;;;;;;4970346;28;20034;-84
2022/06/08 03:50:14;;;;;;;4.65;1.27;;;13.40;99.90;;;;;;4966827;28;20049;-83
2022/06/08 03:52:45;;;;;;;2.67;1.20;;;13.50;99.90;;;;;;4974792;28;20031;-83
2022/06/08 03:55:11;;;;;;;3.28;1.17;;;13.50;99.90;;;;;;4970896;28;20061;-84
2022/06/08 03:57:38;;;;;;;2.05;1.17;;;13.60;99.90;;;;;;4975092;28;20027;-84
2022/06/08 04:00:06;;;;;;;3.92;1.20;;;13.60;99.90;;;;;;4966385;28;20031;-84
2022/06/08 04:02:32;;;;;;;2.90;1.30;;;13.60;99.90;;;;;;4972945;28;20062;-83
2022/06/08 04:04:57;;;;;;;2.30;1.40;;;13.70;99.90;;;;;;4979666;28;20086;-84
2022/06/08 04:07:23;;;;;;;5.63;1.40;;;13.70;99.90;;;;;;4968610;28;20038;-83
2022/06/08 04:09:49;;;;;;;3.85;1.52;;;13.70;99.90;;;;;;4971263;28;20057;-83
2022/06/08 04:12:16;;;;;;;5.63;1.38;;;13.70;99.90;;;;;;4966611;28;20118;-82
2022/06/08 04:14:42;;;;;;;4.95;1.52;;;13.80;99.90;;;;;;4968839;28;20142;-83
2022/06/08 04:17:08;;;;;;;2.55;1.33;;;13.90;99.90;;;;;;4973067;28;20481;-83
2022/06/08 04:19:33;;;;;;;3.50;1.15;;;14.00;99.90;;;;;;4971179;28;20569;-83
2022/06/08 04:21:59;;;;;;;2.83;2.00;;;14.10;99.90;;;;;;4971163;28;20464;-83
2022/06/08 04:24:25;;;;;;;7.75;2.50;;;14.20;99.90;;;;;;4968916;28;20034;-83
2022/06/08 04:26:51;;;;;;;3.58;1.55;;;14.30;99.90;;;;;;4976515;28;20113;-83
2022/06/08 04:29:18;;;;;;;6.60;1.60;;;14.50;99.90;;;;;;4968622;28;20386;-83
2022/06/08 04:31:44;;;;;;;1.90;1.35;;;14.70;99.90;;;;;;4970491;28;20127;-83
2022/06/08 04:34:11;;;;;;;2.45;1.30;;;14.90;99.90;;;;;;4967818;28;20026;-83
2022/06/08 04:36:40;;;;;;;5.18;1.35;;;14.90;99.90;;;;;;4971849;28;20046;-83
2022/06/08 04:39:08;;;;;;;3.63;1.92;;;14.90;99.90;;;;;;4967048;28;20034;-83
2022/06/08 04:41:35;;;;;;;6.65;1.38;;;14.80;99.90;;;;;;4968361;28;20527;-83
2022/06/08 04:44:02;;;;;;;3.25;1.67;;;14.80;99.90;;;;;;4974834;28;20041;-83
2022/06/08 04:46:27;;;;;;;3.03;1.40;;;14.80;99.90;;;;;;4970960;28;20031;-82
2022/06/08 04:48:53;;;;;;;3.28;1.38;;;14.80;99.90;;;;;;4968240;28;20098;-83
2022/06/08 04:51:19;;;;;;;6.38;1.40;;;14.80;99.90;;;;;;4971520;28;20023;-83
2022/06/08 04:53:47;;;;;;;6.38;1.73;;;14.80;99.90;;;;;;4966681;28;20031;-84
2022/06/08 04:56:13;;;;;;;4.75;1.20;;;14.80;99.90;;;;;;4967179;28;20037;-82
2022/06/08 04:58:39;;;;;;;4.85;1.75;;;14.90;99.90;;;;;;4970372;28;20029;-82
2022/06/08 05:01:05;;;;;;;6.93;1.73;;;14.90;99.90;;;;;;4968914;28;20026;-82
2022/06/08 05:03:31;;;;;;;3.22;1.30;;;14.90;99.90;;;;;;4970664;28;20022;-82
2022/06/08 05:05:58;;;;;;;5.85;1.90;;;15.00;99.90;;;;;;4971267;28;20505;-80
2022/06/08 05:08:25;;;;;;;7.38;2.05;;;15.10;99.90;;;;;;4978897;28;20156;-83
2022/06/08 05:10:52;;;;;;;4.60;1.67;;;15.30;99.90;;;;;;4965566;28;20026;-82
2022/06/08 05:13:19;;;;;;;4.22;1.20;;;15.50;99.90;;;;;;4969312;28;20042;-83
2022/06/08 05:15:46;;;;;;;3.00;1.25;;;15.70;99.90;;;;;;4973408;28;20022;-84
2022/06/08 05:18:14;;;;;;;2.22;1.27;;;15.90;99.90;;;;;;4969595;28;20034;-84
2022/06/08 05:20:42;;;;;;;5.70;1.58;;;15.90;99.90;;;;;;4969644;28;20031;-84
2022/06/08 05:23:15;;;;;;;3.28;1.75;;;16.00;99.90;;;;;;4967459;28;20069;-84
2022/06/08 05:25:42;;;;;;;6.55;1.50;;;16.00;99.90;;;;;;4966705;28;20027;-84
2022/06/08 05:28:09;;;;;;;4.03;1.00;;;16.00;99.90;;;;;;4968101;28;20031;-85
2022/06/08 05:30:36;;;;;;;3.67;1.23;;;16.00;99.90;;;;;;4965776;28;20031;-84
2022/06/08 05:33:03;;;;;;;5.20;1.35;;;16.00;99.90;;;;;;4973125;28;20034;-84
2022/06/08 05:35:30;;;;;;;3.40;1.13;;;16.00;99.90;;;;;;4968281;28;20031;-84
2022/06/08 05:37:55;;;;;;;5.93;1.50;;;16.00;99.90;;;;;;4970546;28;20045;-76
2022/06/08 05:40:23;;;;;;;4.03;1.60;;;16.00;99.90;;;;;;4972635;28;20027;-77
2022/06/08 05:42:49;;;;;;;3.20;1.27;;;16.00;99.90;;;;;;4973054;28;20109;-86
2022/06/08 05:45:18;;;;;;;3.72;1.52;;;16.00;99.90;;;;;;4974096;28;20086;-87
2022/06/08 05:47:44;;;;;;;8.35;1.70;;;16.00;99.90;;;;;;4969970;28;20034;-86
2022/06/08 05:50:09;;;;;;;3.78;1.40;;;16.00;99.90;;;;;;4972715;28;20038;-86
2022/06/08 05:52:35;;;;;;;5.78;1.10;;;16.00;99.90;;;;;;4974736;28;20089;-81
2022/06/08 05:55:01;;;;;;;5.97;1.45;;;16.00;99.90;;;;;;4976992;28;20048;-84
2022/06/08 05:57:26;;;;;;;5.15;1.42;;;15.90;99.90;;;;;;4978127;28;20025;-83
2022/06/08 05:59:52;;;;;;;7.72;2.03;;;15.90;99.90;;;;;;4974299;28;20022;-83
2022/06/08 06:02:18;;;;;;;6.10;1.60;;;15.80;99.90;;;;;;4970740;28;20461;-83
2022/06/08 06:04:44;;;;;;;3.10;1.65;;;15.90;99.90;;;;;;4967144;28;20435;-83
2022/06/08 06:07:11;;;;;;;5.55;1.60;;;15.80;99.90;;;;;;4972556;28;20171;-82
2022/06/08 06:09:38;;;;;;;3.50;1.70;;;15.80;99.90;;;;;;4972506;28;20765;-82
2022/06/08 06:12:04;;;;;;;5.72;1.85;;;15.80;99.90;;;;;;4970485;28;20035;-83
2022/06/08 06:14:29;;;;;;;3.92;1.88;;;15.80;99.90;;;;;;4973279;28;20030;-84
2022/06/08 06:16:55;;;;;;;4.20;2.22;;;15.80;99.90;;;;;;4980657;28;20106;-83
2022/06/08 06:19:21;;;;;;;3.17;1.67;;;15.70;99.90;;;;;;4974655;28;20490;-83
2022/06/08 06:21:47;;;;;;;3.42;1.85;;;15.80;99.90;;;;;;4970405;28;20464;-87
2022/06/08 06:24:13;;;;;;;4.05;1.52;;;15.80;99.90;;;;;;4974235;28;20102;-84
2022/06/08 06:26:38;;;;;;;3.92;1.88;;;15.80;99.90;;;;;;4969066;28;20162;-83
2022/06/08 06:29:04;;;;;;;5.65;1.92;;;15.80;99.90;;;;;;4971501;28;20458;-83
2022/06/08 06:31:42;;;;;;;4.75;1.60;;;15.90;99.90;;;;;;4967505;28;20495;-84
2022/06/08 06:34:11;;;;;;;6.80;1.90;;;15.90;99.90;;;;;;4975944;28;20026;-84
2022/06/08 06:36:37;;;;;;;3.08;1.67;;;15.90;99.90;;;;;;4976903;28;20035;-83
2022/06/08 06:39:03;;;;;;;5.15;1.70;;;16.00;99.90;;;;;;4981745;28;20939;-83
2022/06/08 06:41:29;;;;;;;5.53;1.77;;;16.00;99.90;;;;;;4974308;28;20030;-84
2022/06/08 06:43:55;;;;;;;6.50;1.83;;;16.10;99.90;;;;;;4969658;28;20034;-84
2022/06/08 06:46:21;;;;;;;4.78;1.60;;;16.20;99.90;;;;;;4964295;28;20035;-84
2022/06/08 06:48:47;;;;;;;3.40;1.52;;;16.20;99.90;;;;;;4983756;28;20037;-83
2022/06/08 06:51:12;;;;;;;4.72;1.95;;;16.30;99.90;;;;;;4974138;28;20043;-84
2022/06/08 06:53:38;;;;;;;3.53;2.00;;;16.30;99.90;;;;;;4972535;28;20085;-84
2022/06/08 06:56:04;;;;;;;5.88;1.75;;;16.30;99.90;;;;;;4974566;28;20038;-84
2022/06/08 06:58:30;;;;;;;3.60;1.50;;;16.40;99.90;;;;;;4963420;28;20050;-83
2022/06/08 07:00:56;;;;;;;5.30;2.13;;;16.40;99.90;;;;;;4963671;28;20026;-84
2022/06/08 07:03:22;;;;;;;5.63;2.03;;;16.50;99.90;;;;;;4966557;28;20031;-83
2022/06/08 07:05:49;;;;;;;7.03;2.13;;;16.50;99.90;;;;;;4971117;28;20026;-83
2022/06/08 07:08:14;;;;;;;5.43;2.28;;;16.50;99.90;;;;;;4964233;28;20035;-83
2022/06/08 07:10:40;;;;;;;5.72;2.38;;;16.60;99.90;;;;;;4968479;28;20036;-82
2022/06/08 07:13:06;;;;;;;5.57;1.90;;;16.60;99.90;;;;;;4966344;28;20098;-83
2022/06/08 07:15:32;;;;;;;6.00;1.83;;;16.60;99.90;;;;;;4964284;28;20046;-84
2022/06/08 07:17:58;;;;;;;4.10;2.40;;;16.60;99.90;;;;;;4920539;28;20039;-83
2022/06/08 07:20:23;;;;;;;6.88;2.30;;;16.60;99.90;;;;;;4972366;28;20042;-84
2022/06/08 07:22:50;;;;;;;4.47;1.92;;;16.70;99.90;;;;;;4965450;28;20038;-84
2022/06/08 07:25:17;;;;;;;4.57;1.73;;;16.80;99.90;;;;;;4969875;28;20114;-84
2022/06/08 07:27:44;;;;;;;4.10;1.67;;;16.90;99.90;;;;;;4970531;28;20058;-84
2022/06/08 07:30:10;;;;;;;6.85;1.92;;;17.00;99.90;;;;;;4970138;28;20066;-84
2022/06/08 07:32:36;;;;;;;5.13;2.08;;;17.10;99.90;;;;;;4962883;28;20034;-84
2022/06/08 07:35:03;;;;;;;6.50;1.48;;;17.30;99.90;;;;;;4997621;28;20031;-84
2022/06/08 07:37:29;;;;;;;4.43;1.50;;;17.30;99.90;;;;;;4964874;28;20027;-84
2022/06/08 07:39:55;;;;;;;3.75;1.63;;;17.40;99.90;;;;;;4964779;28;20400;-83
2022/06/08 07:42:21;;;;;;;3.85;1.20;;;17.50;99.90;;;;;;4960582;28;20621;-83
2022/06/08 07:44:47;;;;;;;4.75;1.75;;;17.60;99.90;;;;;;4953903;28;20058;-84
2022/06/08 07:47:14;;;;;;;4.85;1.30;;;17.70;99.90;;;;;;4964789;28;20664;-84
2022/06/08 07:49:41;;;;;;;4.57;2.17;;;17.70;99.90;;;;;;4971204;28;20022;-84
2022/06/08 07:52:10;;;;;;;4.00;1.30;;;17.80;99.90;;;;;;4969645;28;20023;-84
2022/06/08 07:54:37;;;;;;;6.82;1.77;;;18.00;99.90;;;;;;4982165;28;20031;-84
2022/06/08 07:57:03;;;;;;;3.70;1.45;;;18.00;99.90;;;;;;4966175;28;20050;-84
2022/06/08 07:59:31;;;;;;;5.50;1.05;;;18.10;99.90;;;;;;5001709;28;20050;-84
2022/06/08 08:01:57;;;;;;;6.32;1.55;;;18.10;99.90;;;;;;4968384;28;20547;-84
2022/06/08 08:04:24;;;;;;;2.95;1.15;;;18.10;99.90;;;;;;4969378;28;20558;-85
2022/06/08 08:06:49;;;;;;;2.70;1.20;;;18.00;99.90;;;;;;4970493;28;20027;-84
2022/06/08 08:09:20;;;;;;;8.32;1.65;;;18.10;99.90;;;;;;4965365;28;20033;-83
2022/06/08 08:11:47;;;;;;;3.47;1.50;;;18.20;99.90;;;;;;4968351;28;20118;-83
2022/06/08 08:14:14;;;;;;;2.38;1.00;;;18.20;99.90;;;;;;4962845;28;20495;-84
2022/06/08 08:16:41;;;;;;;5.63;0.85;;;18.30;99.90;;;;;;5004686;28;20487;-83
2022/06/08 08:19:06;;;;;;;3.22;1.10;;;18.40;99.90;;;;;;4967512;28;20507;-83
2022/06/08 08:21:32;;;;;;;1.98;0.90;;;18.40;99.90;;;;;;4969598;28;20046;-83
2022/06/08 08:23:59;;;;;;;3.28;1.50;;;18.60;99.90;;;;;;4966003;28;20078;-84
2022/06/08 08:26:26;;;;;;;5.68;1.55;;;18.70;99.90;;;;;;4960911;28;20478;-84
2022/06/08 08:28:53;;;;;;;2.30;1.02;;;18.80;99.90;;;;;;4964702;28;20050;-84
2022/06/08 08:31:19;;;;;;;3.55;1.00;;;18.90;99.90;;;;;;4968320;28;20026;-85
2022/06/08 08:33:44;;;;;;;7.68;1.00;;;18.90;99.90;;;;;;4968461;28;20109;-84
2022/06/08 08:36:11;;;;;;;2.10;1.00;;;19.00;99.90;;;;;;4968572;28;20054;-84
2022/06/08 08:38:37;;;;;;;3.80;1.40;;;19.10;99.90;;;;;;4969150;28;20089;-83
2022/06/08 08:41:04;;;;;;;5.00;1.20;;;19.20;99.90;;;;;;4962819;28;20023;-84
2022/06/08 08:43:35;;;;;;;4.32;0.82;;;19.40;99.90;;;;;;4972973;28;20628;-83
2022/06/08 08:46:07;;;;;;;3.33;1.20;;;19.50;99.90;;;;;;4968082;28;20038;-83
2022/06/08 08:48:59;;;;;;;6.93;1.40;;;19.70;99.90;;;;;;4966436;28;20034;-84
2022/06/08 08:51:42;;;;;;;3.22;1.10;;;19.90;99.90;;;;;;4962889;28;20053;-84
2022/06/08 08:54:22;;;;;;;5.00;1.00;;;19.90;99.90;;;;;;4967946;28;20395;-84
2022/06/08 08:56:50;;;;;;;2.00;0.90;;;20.00;99.90;;;;;;4968234;28;20030;-84
2022/06/08 08:59:19;;;;;;;1.58;0.82;;;20.10;99.90;;;;;;4969894;28;20023;-85
2022/06/08 09:01:49;;;;;;;3.72;1.05;;;20.20;99.20;;;;;;4997166;28;20022;-84
2022/06/08 09:04:21;;;;;;;4.85;1.20;;;20.20;98.80;;;;;;4967114;28;20027;-84
2022/06/08 09:06:47;;;;;;;2.50;1.25;;;20.30;98.40;;;;;;4967891;28;20030;-84
2022/06/08 09:09:20;;;;;;;4.57;1.17;;;20.30;98.60;;;;;;4960444;28;20058;-81
2022/06/08 09:11:46;;;;;;;2.65;0.90;;;20.30;98.00;;;;;;4963421;28;20031;-81
2022/06/08 09:14:17;;;;;;;7.65;0.90;;;20.30;97.50;;;;;;4968718;28;20066;-81
2022/06/08 09:17:09;;;;;;;2.40;1.10;;;20.30;97.50;;;;;;4969590;28;20038;-81
2022/06/08 09:19:43;;;;;;;5.85;1.38;;;20.30;97.30;;;;;;4956390;28;20078;-82
2022/06/08 09:22:08;;;;;;;3.95;1.00;;;20.30;97.50;;;;;;4968736;28;20055;-82
2022/06/08 09:24:41;;;;;;;2.28;1.17;;;20.30;97.30;;;;;;4969138;28;20442;-83
2022/06/08 09:27:13;;;;;;;2.90;0.77;;;20.30;97.30;;;;;;4968312;28;20027;-84
2022/06/08 09:29:59;;;;;;;2.45;1.00;;;20.30;97.20;;;;;;4968002;28;20035;-84
2022/06/08 09:32:35;;;;;;;3.72;1.23;;;20.30;97.00;;;;;;5002184;28;20044;-83
2022/06/08 09:35:23;;;;;;;3.80;1.10;;;20.30;97.40;;;;;;4961827;28;20121;-84
2022/06/08 09:37:52;;;;;;;3.70;0.80;;;20.50;97.70;;;;;;4957694;28;20403;-83
2022/06/08 09:40:36;;;;;;;4.43;1.13;;;20.60;97.10;;;;;;4961877;28;20034;-82
2022/06/08 09:43:28;;;;;;;3.35;1.30;;;20.90;96.50;;;;;;4960769;28;20051;-83
2022/06/08 09:45:54;;;;;;;2.30;0.90;;;21.00;95.40;;;;;;4969963;28;20043;-84
2022/06/08 09:51:35;;;;;;;4.57;1.30;;;21.50;93.10;;;;;;4964323;28;20510;-84
2022/06/08 09:54:15;;;;;;;3.03;0.88;;;21.70;91.90;;;;;;4970509;28;20031;-84
2022/06/08 09:56:49;;;;;;;4.65;1.00;;;21.80;91.70;;;;;;4998064;28;20157;-84
2022/06/08 09:59:21;;;;;;;6.50;0.95;;;21.80;91.30;;;;;;4996433;28;20019;-84
2022/06/08 10:02:02;;;;;;;3.88;1.25;;;21.80;91.30;;;;;;4963510;28;20022;-84
2022/06/08 10:04:54;;;;;;;1.52;0.98;;;21.80;91.30;;;;;;4961588;28;20043;-81
2022/06/08 10:07:24;;;;;;;7.10;1.20;;;21.80;91.50;;;;;;4959002;28;20086;-81
2022/06/08 10:10:10;;;;;;;4.32;1.20;;;21.90;91.20;;;;;;4962493;28;20043;-81
2022/06/08 10:12:48;;;;;;;2.50;1.20;;;22.00;90.40;;;;;;4971727;28;20113;-82
2022/06/08 10:15:41;;;;;;;4.63;1.25;;;22.00;88.80;;;;;;4941976;28;20042;-82
2022/06/08 10:18:19;;;;;;;3.22;1.13;;;22.00;87.50;;;;;;4968727;28;20034;-82
2022/06/08 10:20:50;;;;;;;1.60;0.80;;;21.80;87.10;;;;;;4962743;28;20027;-83
2022/06/08 10:23:42;;;;;;;3.40;0.98;;;21.80;86.10;;;;;;4968869;28;20023;-82
2022/06/08 10:26:35;;;;;;;4.97;1.27;;;21.70;85.20;;;;;;5000081;28;20031;-82
2022/06/08 10:29:32;;;;;;;3.20;0.80;;;21.70;85.40;;;;;;4939691;28;20038;-82
2022/06/08 10:32:33;;;;;;;3.63;0.88;;;21.70;85.40;;;;;;4980147;28;20039;-82
2022/06/08 10:35:12;;;;;;;2.50;0.70;;;21.70;85.40;;;;;;4906390;29;20425;-81
2022/06/08 10:37:41;;;;;;;2.03;0.80;;;21.60;83.00;;;;;;4961312;28;20484;-81
2022/06/08 10:40:09;;;;;;;2.70;0.73;;;21.60;81.90;;;;;;4968259;28;20038;-81
2022/06/08 10:42:46;;;;;;;2.95;0.80;;;21.60;80.60;;;;;;4972200;28;20029;-81
2022/06/08 10:45:23;;;;;;;2.13;0.60;;;21.60;79.10;;;;;;4969498;28;20023;-81
2022/06/08 10:48:14;;;;;;;4.00;1.10;;;21.60;79.10;;;;;;4970632;28;20026;-82
2022/06/08 10:50:46;;;;;;;3.00;0.60;;;21.70;78.80;;;;;;4970376;28;20038;-82
2022/06/08 10:56:23;;;;;;;3.47;0.80;;;21.80;78.60;;;;;;4969214;28;20553;-82
2022/06/08 10:59:06;;;;;;;2.22;0.82;;;21.90;75.70;;;;;;4962993;28;20031;-82
2022/06/08 11:01:46;;;;;;;3.10;1.00;;;21.90;75.40;;;;;;4972587;28;20502;-82
2022/06/08 11:04:30;;;;;;;3.08;1.13;;;21.80;75.20;;;;;;4972787;28;20034;-81
2022/06/08 11:07:03;;;;;;;2.47;0.65;;;21.70;74.90;;;;;;4991987;23;20071;-81
2022/06/08 11:09:32;;;;;;;2.47;0.90;;;21.70;75.40;;;;;;4952785;28;20597;-81
2022/06/08 11:12:11;;;;;;;2.95;0.75;;;21.70;75.50;;;;;;4947353;28;20045;-82
2022/06/08 11:14:42;;;;;;;2.53;0.98;;;21.90;75.80;;;;;;4946645;28;20031;-82
2022/06/08 11:17:16;;;;;;;3.25;0.75;;;22.10;75.00;;;;;;4943488;28;20019;-82
2022/06/08 11:19:44;;;;;;;2.88;0.70;;;22.20;74.30;;;;;;4947474;28;20090;-82
2022/06/08 11:22:20;;;;;;;2.25;0.70;;;22.20;72.20;;;;;;4946699;28;20023;-81
2022/06/08 11:24:51;;;;;;;1.58;0.63;;;22.30;72.20;;;;;;4948248;28;20379;-82
2022/06/08 11:27:33;;;;;;;3.30;1.27;;;22.40;72.60;;;;;;4943613;28;20049;-81
2022/06/08 11:30:06;;;;;;;2.03;0.85;;;22.60;72.50;;;;;;4943973;28;20106;-82
2022/06/08 11:32:32;;;;;;;1.77;0.70;;;22.70;72.00;;;;;;4947804;28;20054;-81
2022/06/08 11:35:35;;;;;;;5.47;1.10;;;22.90;71.30;;;;;;4948778;28;20035;-82
2022/06/08 11:38:38;;;;;;;1.25;0.65;;;23.00;69.70;;;;;;4961869;28;20031;-82
2022/06/08 11:41:36;;;;;;;3.33;0.60;;;23.20;67.30;;;;;;4943930;28;20370;-82
2022/06/08 11:44:19;;;;;;;2.30;0.80;;;23.20;66.80;;;;;;4944548;28;20039;-82
2022/06/08 11:46:50;;;;;;;2.13;1.05;;;23.20;67.60;;;;;;4947096;28;20034;-82
2022/06/08 11:49:38;;;;;;;1.42;0.70;;;23.40;68.00;;;;;;4946374;28;20038;-82
2022/06/08 11:52:41;;;;;;;1.80;0.80;;;23.40;67.50;;;;;;4948453;28;20491;-82
2022/06/08 11:55:20;;;;;;;2.83;0.80;;;23.50;65.80;;;;;;4942411;28;20415;-82
2022/06/08 11:57:49;;;;;;;1.63;0.80;;;23.60;66.70;;;;;;4943303;28;20036;-82
2022/06/08 12:00:21;;;;;;;2.03;0.60;;;23.70;65.70;;;;;;4941233;28;20031;-82
2022/06/08 12:02:51;;;;;;;4.25;0.88;;;23.70;65.30;;;;;;4943714;28;20026;-81
2022/06/08 12:05:22;;;;;;;2.80;0.80;;;23.70;64.80;;;;;;4942562;28;20139;-81
2022/06/08 12:08:03;;;;;;;2.60;0.90;;;23.70;64.90;;;;;;4947251;28;20031;-81
2022/06/08 12:10:33;;;;;;;0.88;0.60;;;23.60;64.60;;;;;;4948026;28;20052;-81
2022/06/08 12:12:59;;;;;;;2.42;0.80;;;23.60;64.20;;;;;;4947938;28;20019;-81
2022/06/08 12:15:35;;;;;;;3.53;0.63;;;23.60;64.20;;;;;;4945026;28;20043;-80
2022/06/08 12:18:16;;;;;;;1.95;0.73;;;23.50;64.10;;;;;;4944893;28;20476;-82
2022/06/08 12:20:41;;;;;;;2.25;0.80;;;23.70;64.80;;;;;;4945600;28;20032;-82
2022/06/08 12:23:07;;;;;;;2.10;0.88;;;23.80;64.80;;;;;;4942477;28;20035;-81
2022/06/08 12:25:33;;;;;;;2.38;0.73;;;23.90;64.00;;;;;;4944877;28;20178;-81
2022/06/08 12:28:11;;;;;;;7.97;2.53;;;24.00;62.60;;;;;;4946603;28;20137;-81
2022/06/08 12:30:58;;;;;;;5.40;1.70;;;24.00;61.10;;;;;;4943060;28;20031;-83
2022/06/08 12:33:28;;;;;;;3.33;1.10;;;24.10;62.40;;;;;;4941272;28;20515;-82
2022/06/08 12:35:57;;;;;;;3.42;0.88;;;24.20;62.70;;;;;;4945858;28;20042;-81
2022/06/08 12:38:29;;;;;;;2.67;0.93;;;24.20;62.30;;;;;;4944804;28;20065;-83
2022/06/08 12:41:19;;;;;;;1.67;0.80;;;24.30;62.00;;;;;;4946113;28;20058;-84
2022/06/08 12:44:03;;;;;;;2.60;1.00;;;24.30;61.50;;;;;;4948194;28;20027;-81
2022/06/08 12:46:34;;;;;;;3.30;1.00;;;24.30;61.00;;;;;;4943794;28;20511;-82
2022/06/08 12:49:16;;;;;;;2.33;0.73;;;24.50;61.10;;;;;;4962331;28;20451;-86
2022/06/08 12:51:54;;;;;;;2.53;0.70;;;24.50;60.20;;;;;;4942706;28;20548;-85
2022/06/08 12:54:30;;;;;;;3.85;1.05;;;24.50;59.90;;;;;;4956752;28;20031;-85
2022/06/08 12:57:11;;;;;;;2.70;0.80;;;24.70;60.40;;;;;;4949593;28;20030;-83
2022/06/08 12:59:37;;;;;;;4.57;0.88;;;24.90;60.10;;;;;;4942441;28;20287;-84
2022/06/08 13:02:20;;;;;;;1.70;0.80;;;24.90;59.70;;;;;;4946616;28;20030;-81
2022/06/08 13:04:47;;;;;;;3.85;1.00;;;25.00;60.10;;;;;;4949755;28;20500;-85
2022/06/08 13:07:16;;;;;;;2.10;0.95;;;25.10;60.00;;;;;;4958326;28;20043;-83
2022/06/08 13:09:41;;;;;;;1.80;0.80;;;25.10;59.80;;;;;;4946915;28;20422;-85
2022/06/08 13:12:11;;;;;;;3.45;0.68;;;25.10;58.70;;;;;;4947581;28;20031;-84
2022/06/08 13:14:38;;;;;;;7.32;1.20;;;25.10;58.20;;;;;;4959465;28;20039;-81
2022/06/08 13:17:04;;;;;;;3.30;1.00;;;25.10;58.50;;;;;;4946163;28;20034;-83
2022/06/08 13:19:30;;;;;;;4.90;0.90;;;25.10;59.00;;;;;;4942702;29;20050;-83
2022/06/08 13:21:56;;;;;;;2.95;0.80;;;25.20;59.20;;;;;;4942700;28;20063;-81